createdAt,value
2022-09-15T00:00:49.705Z,18.40
2022-09-15T00:03:19.087Z,18.70
2022-09-15T00:05:46.899Z,19.00
2022-09-15T00:08:14.733Z,19.07
2022-09-15T00:10:48.819Z,19.21
2022-09-15T00:13:16.547Z,19.20
2022-09-15T00:15:44.135Z,19.24
2022-09-15T00:18:12.145Z,19.29
2022-09-15T00:20:43.176Z,19.40
2022-09-15T00:23:12.008Z,19.43
2022-09-15T00:25:44.200Z,19.14
2022-09-15T00:28:11.644Z,18.92
2022-09-15T00:30:42.373Z,19.02
2022-09-15T00:33:10.063Z,18.65
2022-09-15T00:35:39.739Z,18.59
2022-09-15T00:38:10.274Z,18.67
2022-09-15T00:40:44.999Z,18.34
2022-09-15T00:43:14.218Z,18.28
2022-09-15T00:45:42.085Z,18.63
2022-09-15T00:48:13.423Z,18.61
2022-09-15T00:50:44.017Z,18.28
2022-09-15T00:53:15.140Z,18.37
2022-09-15T00:55:47.313Z,18.12
2022-09-15T00:58:19.821Z,18.05
2022-09-15T01:00:53.161Z,18.03
2022-09-15T01:03:20.689Z,17.92
2022-09-15T01:05:53.720Z,18.06
2022-09-15T01:08:30.274Z,18.71
2022-09-15T01:10:58.520Z,18.43
2022-09-15T01:13:26.799Z,18.50
2022-09-15T01:16:03.681Z,18.58
2022-09-15T01:18:40.898Z,18.78
2022-09-15T01:21:22.913Z,18.62
2022-09-15T01:24:35.563Z,18.62
2022-09-15T01:27:40.383Z,18.64
2022-09-15T01:30:09.561Z,18.62
2022-09-15T01:33:06.582Z,18.55
2022-09-15T01:35:45.562Z,18.62
2022-09-15T01:38:21.799Z,18.63
2022-09-15T01:40:53.866Z,18.74
2022-09-15T01:43:24.746Z,18.79
2022-09-15T01:45:54.174Z,18.37
2022-09-15T01:48:25.335Z,18.72
2022-09-15T01:50:56.856Z,18.75
2022-09-15T01:53:25.458Z,18.99
2022-09-15T01:55:57.328Z,19.14
2022-09-15T01:58:24.830Z,19.02
2022-09-15T02:00:59.605Z,19.24
2022-09-15T02:03:33.626Z,19.13
2022-09-15T02:06:05.036Z,19.31
2022-09-15T02:08:39.084Z,19.26
2022-09-15T02:11:15.398Z,19.06
2022-09-15T02:13:48.804Z,19.11
2022-09-15T02:16:21.948Z,18.98
2022-09-15T02:19:12.231Z,19.15
2022-09-15T02:21:53.898Z,19.26
2022-09-15T02:24:27.890Z,18.63
2022-09-15T02:26:56.089Z,18.54
2022-09-15T02:29:27.194Z,18.49
2022-09-15T02:32:03.719Z,18.28
2022-09-15T02:34:36.865Z,18.26
2022-09-15T02:37:05.997Z,18.34
2022-09-15T02:39:37.286Z,18.22
2022-09-15T02:42:05.167Z,17.95
2022-09-15T02:44:32.997Z,18.09
2022-09-15T02:47:02.535Z,17.81
2022-09-15T02:49:30.036Z,18.01
2022-09-15T02:51:57.488Z,18.11
2022-09-15T02:54:25.005Z,17.75
2022-09-15T02:56:52.427Z,17.67
2022-09-15T02:59:19.853Z,17.32
2022-09-15T03:01:47.361Z,17.32
2022-09-15T03:04:16.204Z,17.71
2022-09-15T03:06:43.868Z,17.68
2022-09-15T03:09:12.465Z,18.07
2022-09-15T03:11:39.879Z,18.06
2022-09-15T03:14:08.158Z,17.51
2022-09-15T03:16:36.773Z,17.36
2022-09-15T03:19:05.632Z,17.50
2022-09-15T03:21:34.769Z,17.86
2022-09-15T03:24:02.608Z,18.47
2022-09-15T03:26:30.992Z,19.07
2022-09-15T03:28:58.413Z,19.38
2022-09-15T03:31:25.883Z,19.35
2022-09-15T03:33:55.960Z,19.47
2022-09-15T03:36:23.402Z,19.72
2022-09-15T03:38:52.627Z,19.39
2022-09-15T03:41:20.166Z,19.37
2022-09-15T03:43:47.627Z,19.08
2022-09-15T03:46:15.170Z,19.06
2022-09-15T03:48:42.943Z,18.58
2022-09-15T03:51:11.419Z,18.53
2022-09-15T03:53:40.633Z,18.84
2022-09-15T03:56:11.930Z,18.90
2022-09-15T03:58:39.546Z,19.10
2022-09-15T04:01:07.062Z,18.83
2022-09-15T04:03:37.474Z,19.10
2022-09-15T04:06:08.204Z,18.60
2022-09-15T04:08:35.631Z,18.32
2022-09-15T04:11:05.670Z,18.70
2022-09-15T04:13:35.107Z,18.66
2022-09-15T04:16:04.253Z,18.98
2022-09-15T04:18:33.084Z,19.09
2022-09-15T04:21:01.573Z,19.10
2022-09-15T04:23:29.331Z,19.08
2022-09-15T04:25:57.652Z,19.14
2022-09-15T04:28:25.895Z,19.00
2022-09-15T04:30:55.336Z,19.05
2022-09-15T04:33:23.033Z,18.71
2022-09-15T04:35:50.451Z,18.25
2022-09-15T04:38:17.880Z,18.29
2022-09-15T04:40:45.353Z,18.18
2022-09-15T04:43:12.787Z,18.14
2022-09-15T04:45:40.893Z,18.09
2022-09-15T04:48:09.727Z,18.33
2022-09-15T04:50:37.170Z,18.12
2022-09-15T04:53:04.650Z,17.90
2022-09-15T04:55:32.974Z,18.07
2022-09-15T04:58:00.487Z,18.04
2022-09-15T05:00:27.920Z,17.96
2022-09-15T05:02:55.421Z,17.88
2022-09-15T05:05:25.101Z,18.06
2022-09-15T05:07:52.991Z,18.12
2022-09-15T05:10:21.145Z,18.01
2022-09-15T05:12:48.591Z,18.11
2022-09-15T05:15:16.255Z,17.93
2022-09-15T05:17:43.693Z,17.94
2022-09-15T05:20:11.148Z,17.84
2022-09-15T05:22:41.994Z,17.82
2022-09-15T05:25:10.148Z,17.97
2022-09-15T05:27:39.216Z,18.19
2022-09-15T05:30:34.961Z,18.04
2022-09-15T05:32:56.156Z,18.22
2022-09-15T05:35:24.470Z,18.21
2022-09-15T05:37:53.244Z,18.16
2022-09-15T05:40:22.122Z,18.28
2022-09-15T05:42:49.619Z,18.25
2022-09-15T05:45:17.232Z,18.54
2022-09-15T05:47:44.687Z,18.62
2022-09-15T05:50:12.224Z,18.14
2022-09-15T05:52:40.091Z,18.21
2022-09-15T05:55:10.004Z,18.41
2022-09-15T05:57:37.445Z,18.94
2022-09-15T06:00:05.898Z,19.07
2022-09-15T06:02:33.536Z,19.07
2022-09-15T06:05:01.056Z,19.01
2022-09-15T06:07:28.499Z,19.46
2022-09-15T06:09:56.156Z,19.40
2022-09-15T06:12:25.037Z,19.13
2022-09-15T06:14:53.116Z,18.82
2022-09-15T06:17:20.781Z,18.70
2022-09-15T06:19:48.216Z,18.79
2022-09-15T06:22:15.901Z,19.02
2022-09-15T06:24:43.345Z,18.94
2022-09-15T06:27:10.790Z,19.26
2022-09-15T06:29:39.554Z,19.73
2022-09-15T06:32:07.132Z,19.73
2022-09-15T06:34:34.623Z,19.72
2022-09-15T06:37:02.072Z,19.34
2022-09-15T06:39:29.544Z,19.48
2022-09-15T06:42:02.724Z,19.69
2022-09-15T06:44:31.629Z,19.34
2022-09-15T06:47:00.411Z,19.86
2022-09-15T06:49:28.842Z,19.98
2022-09-15T06:51:56.403Z,19.93
2022-09-15T06:54:23.969Z,19.46
2022-09-15T06:56:51.491Z,19.52
2022-09-15T06:59:18.985Z,19.29
2022-09-15T07:01:46.550Z,19.27
2022-09-15T07:04:15.471Z,19.11
2022-09-15T07:06:42.900Z,19.04
2022-09-15T07:09:11.915Z,18.98
2022-09-15T07:11:39.376Z,18.75
2022-09-15T07:14:07.409Z,18.77
2022-09-15T07:16:34.982Z,18.75
2022-09-15T07:19:03.701Z,18.79
2022-09-15T07:21:32.663Z,18.97
2022-09-15T07:24:03.881Z,18.76
2022-09-15T07:26:34.747Z,18.89
2022-09-15T07:29:03.805Z,19.02
2022-09-15T07:31:33.285Z,18.77
2022-09-15T07:34:02.157Z,18.81
2022-09-15T07:36:29.910Z,18.99
2022-09-15T07:38:58.890Z,18.92
2022-09-15T07:41:28.611Z,18.70
2022-09-15T07:43:57.707Z,18.75
2022-09-15T07:46:26.894Z,18.83
2022-09-15T07:48:56.242Z,18.85
2022-09-15T07:51:23.976Z,19.07
2022-09-15T07:53:52.563Z,19.29
2022-09-15T07:56:22.317Z,19.42
2022-09-15T07:58:50.885Z,19.56
2022-09-15T08:01:19.646Z,19.65
2022-09-15T08:03:49.421Z,19.57
2022-09-15T08:06:18.036Z,19.97
2022-09-15T08:08:45.519Z,19.90
2022-09-15T08:11:18.855Z,20.06
2022-09-15T08:13:49.320Z,20.07
2022-09-15T08:16:20.110Z,20.25
2022-09-15T08:18:48.121Z,20.02
2022-09-15T08:21:17.444Z,19.87
2022-09-15T08:23:45.479Z,19.97
2022-09-15T08:26:14.574Z,20.04
2022-09-15T08:28:42.906Z,20.28
2022-09-15T08:31:13.742Z,20.44
2022-09-15T08:33:45.456Z,20.32
2022-09-15T08:36:13.860Z,20.59
2022-09-15T08:38:42.848Z,20.46
2022-09-15T08:41:15.401Z,20.59
2022-09-15T08:43:47.461Z,20.16
2022-09-15T08:46:22.707Z,19.71
2022-09-15T08:49:03.121Z,19.13
2022-09-15T08:51:37.032Z,19.40
2022-09-15T08:54:12.233Z,18.95
2022-09-15T08:56:42.269Z,18.73
2022-09-15T08:59:13.315Z,19.23
2022-09-15T09:01:55.212Z,19.30
2022-09-15T09:04:36.660Z,19.11
2022-09-15T09:07:19.480Z,18.74
2022-09-15T09:09:53.557Z,18.67
2022-09-15T09:12:33.380Z,18.15
2022-09-15T09:15:15.041Z,17.52
2022-09-15T09:18:05.148Z,17.51
2022-09-15T09:20:42.241Z,18.25
2022-09-15T09:23:15.316Z,18.33
2022-09-15T09:25:44.410Z,18.29
2022-09-15T09:28:24.663Z,17.80
2022-09-15T09:30:52.371Z,17.65
2022-09-15T09:33:30.326Z,17.80
2022-09-15T09:36:02.163Z,17.75
2022-09-15T09:38:33.281Z,17.71
2022-09-15T09:41:02.582Z,17.72
2022-09-15T09:43:31.527Z,17.69
2022-09-15T09:45:59.639Z,17.70
2022-09-15T09:48:30.423Z,17.78
2022-09-15T09:50:57.944Z,18.13
2022-09-15T09:53:30.899Z,17.97
2022-09-15T09:56:17.420Z,17.54
2022-09-15T09:58:46.018Z,17.81
2022-09-15T10:01:15.649Z,17.99
2022-09-15T10:03:45.228Z,17.89
2022-09-15T10:06:15.644Z,17.82
2022-09-15T10:08:54.959Z,18.03
2022-09-15T10:11:23.241Z,18.08
2022-09-15T10:13:53.429Z,17.77
2022-09-15T10:16:22.421Z,17.79
2022-09-15T10:18:54.391Z,17.63
2022-09-15T10:21:25.377Z,17.70
2022-09-15T10:23:53.076Z,17.58
2022-09-15T10:26:23.617Z,17.68
2022-09-15T10:29:12.223Z,17.99
2022-09-15T10:31:40.721Z,17.68
2022-09-15T10:34:31.472Z,17.69
2022-09-15T10:37:14.916Z,17.80
2022-09-15T10:39:52.565Z,17.71
2022-09-15T10:42:46.016Z,17.69
2022-09-15T10:45:19.806Z,17.39
2022-09-15T10:48:03.172Z,17.23
2022-09-15T10:50:41.228Z,17.18
2022-09-15T10:53:17.730Z,17.23
2022-09-15T10:55:56.062Z,17.41
2022-09-15T10:58:45.788Z,17.59
2022-09-15T11:01:45.535Z,17.72
2022-09-15T11:04:31.245Z,17.62
2022-09-15T11:07:06.449Z,17.92
2022-09-15T11:09:37.491Z,17.85
2022-09-15T11:12:17.727Z,17.43
2022-09-15T11:14:55.960Z,17.84
2022-09-15T11:17:36.341Z,17.72
2022-09-15T11:20:24.472Z,17.99
2022-09-15T11:22:59.863Z,17.83
2022-09-15T11:25:31.394Z,17.86
2022-09-15T11:28:04.482Z,17.78
2022-09-15T11:30:36.863Z,17.95
2022-09-15T11:33:10.116Z,17.96
2022-09-15T11:35:45.805Z,18.04
2022-09-15T11:38:24.190Z,17.85
2022-09-15T11:40:57.892Z,17.76
2022-09-15T11:43:33.413Z,17.91
2022-09-15T11:46:07.155Z,18.23
2022-09-15T11:48:40.958Z,18.61
2022-09-15T11:51:09.183Z,19.19
2022-09-15T11:53:42.013Z,19.28
2022-09-15T11:56:22.351Z,19.56
2022-09-15T11:59:06.233Z,19.30
2022-09-15T12:01:40.937Z,19.53
2022-09-15T12:04:13.837Z,19.59
2022-09-15T12:06:47.267Z,19.67
2022-09-15T12:09:18.510Z,19.89
2022-09-15T12:11:48.508Z,20.36
2022-09-15T12:14:20.107Z,20.19
2022-09-15T12:16:47.835Z,20.12
2022-09-15T12:19:23.995Z,20.03
2022-09-15T12:21:58.819Z,19.62
2022-09-15T12:24:37.243Z,19.38
2022-09-15T12:27:05.453Z,19.20
2022-09-15T12:29:41.900Z,19.26
2022-09-15T12:32:20.064Z,19.09
2022-09-15T12:34:59.134Z,19.08
2022-09-15T12:37:30.583Z,19.39
2022-09-15T12:39:59.450Z,19.73
2022-09-15T12:42:31.200Z,20.14
2022-09-15T12:45:01.191Z,20.87
2022-09-15T12:47:34.984Z,21.17
2022-09-15T12:50:09.788Z,21.01
2022-09-15T12:52:45.752Z,20.68
2022-09-15T12:55:21.839Z,20.22
2022-09-15T12:57:53.608Z,20.44
2022-09-15T13:00:33.630Z,19.88
2022-09-15T13:03:02.440Z,19.88
2022-09-15T13:05:53.492Z,19.45
2022-09-15T13:08:46.636Z,18.64
2022-09-15T13:11:18.567Z,18.72
2022-09-15T13:13:50.679Z,18.79
2022-09-15T13:16:25.451Z,18.92
2022-09-15T13:19:05.302Z,18.54
2022-09-15T13:21:35.779Z,18.96
2022-09-15T13:24:08.031Z,18.42
2022-09-15T13:26:38.044Z,17.88
2022-09-15T13:29:07.306Z,17.76
2022-09-15T13:31:44.901Z,17.62
2022-09-15T13:40:42.916Z,17.18
2022-09-15T13:43:40.844Z,17.13
2022-09-15T13:46:20.766Z,17.10
2022-09-15T13:48:58.805Z,17.37
2022-09-15T13:51:29.020Z,17.37
2022-09-15T13:54:00.133Z,16.74
2022-09-15T13:56:31.011Z,16.58
2022-09-15T13:59:08.083Z,16.60
2022-09-15T14:01:40.205Z,16.50
2022-09-15T14:04:12.724Z,16.37
2022-09-15T14:06:43.122Z,16.25
2022-09-15T14:09:15.477Z,16.32
2022-09-15T14:11:44.343Z,16.36
2022-09-15T14:14:32.031Z,16.23
2022-09-15T14:16:59.558Z,16.10
2022-09-15T14:19:33.610Z,16.21
2022-09-15T14:22:02.317Z,16.10
2022-09-15T14:24:31.763Z,16.30
2022-09-15T14:27:03.332Z,16.78
2022-09-15T14:29:32.252Z,16.74
2022-09-15T14:32:03.699Z,16.54
2022-09-15T14:34:35.925Z,16.61
2022-09-15T14:37:08.141Z,16.39
2022-09-15T14:39:37.535Z,16.74
2022-09-15T14:42:20.333Z,16.39
2022-09-15T14:47:40.072Z,16.24
2022-09-15T14:50:09.690Z,15.83
2022-09-15T14:52:41.445Z,15.79
2022-09-15T14:55:15.447Z,15.70
2022-09-15T14:57:49.756Z,15.62
2022-09-15T15:00:22.410Z,15.39
2022-09-15T15:03:00.950Z,15.41
2022-09-15T15:05:34.212Z,15.50
2022-09-15T15:08:04.612Z,15.43
2022-09-15T15:10:35.865Z,15.42
2022-09-15T15:13:07.977Z,15.40
2022-09-15T15:15:39.048Z,15.43
2022-09-15T15:18:31.594Z,15.60
2022-09-15T15:21:00.121Z,15.94
2022-09-15T15:23:28.638Z,16.02
2022-09-15T15:26:26.863Z,16.07
2022-09-15T15:28:54.409Z,16.10
2022-09-15T15:31:25.747Z,16.23
2022-09-15T15:33:55.810Z,16.19
2022-09-15T15:36:25.004Z,16.17
2022-09-15T15:38:54.518Z,16.60
2022-09-15T15:41:24.896Z,16.76
2022-09-15T15:44:02.967Z,16.60
2022-09-15T15:46:50.288Z,16.76
2022-09-15T15:49:18.647Z,16.60
2022-09-15T15:51:46.359Z,16.74
2022-09-15T15:54:14.432Z,17.10
2022-09-15T15:56:42.742Z,17.08
2022-09-15T15:59:13.084Z,16.74
2022-09-15T16:01:40.668Z,16.64
2022-09-15T16:04:12.132Z,16.90
2022-09-15T16:06:40.147Z,16.73
2022-09-15T16:09:07.951Z,16.73
2022-09-15T16:11:35.580Z,16.96
2022-09-15T16:14:03.103Z,16.91
2022-09-15T16:16:30.665Z,16.38
2022-09-15T16:18:58.211Z,16.20
2022-09-15T16:21:32.168Z,15.91
2022-09-15T16:23:59.631Z,16.00
2022-09-15T16:26:27.141Z,15.88
2022-09-15T16:28:54.715Z,15.57
2022-09-15T16:31:22.194Z,15.62
2022-09-15T16:33:49.675Z,15.81
2022-09-15T16:36:18.467Z,15.49
2022-09-15T16:38:47.301Z,15.52
2022-09-15T16:41:17.269Z,15.64
2022-09-15T16:43:45.744Z,15.34
2022-09-15T16:46:14.928Z,15.24
2022-09-15T16:48:47.003Z,15.28
2022-09-15T16:51:26.741Z,15.54
2022-09-15T16:53:57.480Z,15.63
2022-09-15T16:56:24.985Z,15.54
2022-09-15T16:58:58.767Z,15.55
2022-09-15T17:01:27.597Z,15.47
2022-09-15T17:03:55.789Z,15.42
2022-09-15T17:06:23.408Z,15.41
2022-09-15T17:08:50.896Z,15.32
2022-09-15T17:11:23.728Z,15.39
2022-09-15T17:13:51.212Z,15.25
2022-09-15T17:16:20.276Z,15.66
2022-09-15T17:18:48.982Z,15.86
2022-09-15T17:21:18.341Z,15.20
2022-09-15T17:23:47.802Z,15.02
2022-09-15T17:26:19.446Z,14.86
2022-09-15T17:28:48.803Z,14.92
2022-09-15T17:31:18.234Z,14.84
2022-09-15T17:33:46.473Z,15.05
2022-09-15T17:36:14.863Z,15.38
2022-09-15T17:38:42.642Z,15.44
2022-09-15T17:41:14.513Z,16.33
2022-09-15T17:43:41.974Z,15.92
2022-09-15T17:46:10.806Z,15.80
2022-09-15T17:48:38.990Z,15.86
2022-09-15T17:51:07.056Z,16.28
2022-09-15T17:53:34.603Z,15.90
2022-09-15T17:56:02.361Z,15.78
2022-09-15T17:58:31.359Z,15.52
2022-09-15T18:00:59.486Z,16.55
2022-09-15T18:03:31.057Z,17.13
2022-09-15T18:06:00.668Z,17.42
2022-09-15T18:08:28.751Z,17.36
2022-09-15T18:10:56.600Z,17.38
2022-09-15T18:13:26.827Z,17.09
2022-09-15T18:15:54.890Z,17.02
2022-09-15T18:18:24.834Z,16.00
2022-09-15T18:20:55.181Z,16.31
2022-09-15T18:23:24.807Z,16.47
2022-09-15T18:25:52.948Z,16.41
2022-09-15T18:28:20.693Z,15.53
2022-09-15T18:30:50.111Z,15.36
2022-09-15T18:33:19.721Z,15.60
2022-09-15T18:35:48.330Z,15.69
2022-09-15T18:38:17.384Z,16.03
2022-09-15T18:40:46.660Z,15.79
2022-09-15T18:43:14.135Z,15.58
2022-09-15T18:45:42.404Z,15.67
2022-09-15T18:48:12.780Z,15.54
2022-09-15T18:50:41.958Z,15.52
2022-09-15T18:53:09.937Z,15.77
2022-09-15T18:55:41.353Z,15.45
2022-09-15T18:58:09.161Z,15.04
2022-09-15T19:00:36.711Z,15.39
2022-09-15T19:03:06.151Z,15.23
2022-09-15T19:05:34.144Z,15.37
2022-09-15T19:08:02.757Z,15.19
2022-09-15T19:10:31.133Z,15.48
2022-09-15T19:13:00.055Z,15.90
2022-09-15T19:15:29.160Z,16.06
2022-09-15T19:17:56.637Z,16.47
2022-09-15T19:20:24.075Z,15.85
2022-09-15T19:22:51.672Z,15.20
2022-09-15T19:25:19.731Z,15.14
2022-09-15T19:27:47.841Z,14.77
2022-09-15T19:30:16.699Z,14.92
2022-09-15T19:32:44.192Z,14.66
2022-09-15T19:35:11.720Z,14.97
2022-09-15T19:37:41.374Z,15.18
2022-09-15T19:40:11.816Z,15.23
2022-09-15T19:42:39.828Z,14.59
2022-09-15T19:45:08.973Z,14.33
2022-09-15T19:47:38.120Z,14.17
2022-09-15T19:50:07.934Z,14.10
2022-09-15T19:52:35.407Z,14.35
2022-09-15T19:55:03.080Z,13.94
2022-09-15T19:57:30.591Z,14.29
2022-09-15T19:59:58.028Z,14.10
2022-09-15T20:02:25.617Z,13.88
2022-09-15T20:04:55.013Z,13.99
2022-09-15T20:07:22.532Z,14.18
2022-09-15T20:09:52.778Z,14.53
2022-09-15T20:14:53.180Z,14.49
2022-09-15T20:17:20.684Z,13.94
2022-09-15T20:19:48.281Z,14.12
2022-09-15T20:22:17.076Z,14.26
2022-09-15T20:24:44.536Z,14.47
2022-09-15T20:27:11.996Z,14.11
2022-09-15T20:29:40.152Z,13.66
2022-09-15T20:32:07.824Z,13.44
2022-09-15T20:34:35.293Z,13.45
2022-09-15T20:37:02.740Z,13.29
2022-09-15T20:39:31.551Z,13.24
2022-09-15T20:41:59.056Z,13.22
2022-09-15T20:44:26.965Z,13.12
2022-09-15T20:46:54.816Z,13.21
2022-09-15T20:49:22.320Z,13.16
2022-09-15T20:51:51.523Z,13.23
2022-09-15T20:54:19.013Z,13.10
2022-09-15T20:56:47.868Z,13.08
2022-09-15T20:59:15.666Z,13.20
2022-09-15T21:01:43.410Z,13.75
2022-09-15T21:04:11.708Z,13.77
2022-09-15T21:06:39.814Z,14.02
2022-09-15T21:09:07.463Z,14.00
2022-09-15T21:11:35.076Z,14.32
2022-09-15T21:14:04.324Z,14.44
2022-09-15T21:16:33.670Z,14.71
2022-09-15T21:19:01.444Z,14.88
2022-09-15T21:21:30.965Z,14.64
2022-09-15T21:24:01.103Z,14.65
2022-09-15T21:26:30.266Z,14.66
2022-09-15T21:28:58.158Z,13.96
2022-09-15T21:31:29.212Z,13.70
2022-09-15T21:33:57.795Z,13.80
2022-09-15T21:36:27.483Z,14.41
2022-09-15T21:38:57.100Z,14.47
2022-09-15T21:41:26.114Z,14.32
2022-09-15T21:43:55.256Z,14.52
2022-09-15T21:46:24.911Z,14.33
2022-09-15T21:48:54.228Z,14.28
2022-09-15T21:51:24.925Z,14.49
2022-09-15T21:53:53.578Z,14.40
2022-09-15T21:56:21.834Z,14.22
2022-09-15T21:58:49.928Z,14.09
2022-09-15T22:01:19.907Z,13.85
2022-09-15T22:03:50.575Z,13.95
2022-09-15T22:06:21.404Z,14.09
2022-09-15T22:08:48.928Z,13.49
2022-09-15T22:11:16.453Z,13.75
2022-09-15T22:13:44.793Z,14.18
2022-09-15T22:16:14.481Z,14.04
2022-09-15T22:18:42.579Z,14.38
2022-09-15T22:21:12.663Z,14.41
2022-09-15T22:23:41.983Z,14.49
2022-09-15T22:26:11.904Z,14.84
2022-09-15T22:28:39.915Z,14.70
2022-09-15T22:31:09.963Z,14.13
2022-09-15T22:33:38.522Z,14.29
2022-09-15T22:36:06.876Z,14.04
2022-09-15T22:38:34.429Z,13.87
2022-09-15T22:41:06.658Z,13.76
2022-09-15T22:43:34.206Z,13.53
2022-09-15T22:46:01.905Z,13.43
2022-09-15T22:48:29.591Z,13.08
2022-09-15T22:50:57.186Z,13.07
2022-09-15T22:53:25.309Z,13.35
2022-09-15T22:55:54.163Z,13.65
2022-09-15T22:58:23.018Z,13.83
2022-09-15T23:00:50.551Z,13.71
2022-09-15T23:03:18.057Z,13.52
2022-09-15T23:05:45.552Z,13.92
2022-09-15T23:08:13.430Z,14.36
2022-09-15T23:10:40.903Z,13.81
2022-09-15T23:13:08.511Z,14.04
2022-09-15T23:15:37.672Z,14.06
2022-09-15T23:18:05.149Z,13.66
2022-09-15T23:20:32.741Z,13.50
2022-09-15T23:23:00.551Z,13.61
2022-09-15T23:25:28.028Z,13.43
2022-09-15T23:27:55.510Z,13.25
2022-09-15T23:30:22.980Z,13.08
2022-09-15T23:32:51.817Z,12.97
2022-09-15T23:35:19.295Z,12.90
2022-09-15T23:37:46.795Z,12.88
2022-09-15T23:40:14.678Z,12.85
2022-09-15T23:42:42.175Z,12.68
2022-09-15T23:45:10.412Z,12.64
2022-09-15T23:47:37.884Z,12.77
2022-09-15T23:50:07.528Z,12.81
2022-09-15T23:52:35.027Z,12.89
2022-09-15T23:55:02.529Z,12.78
2022-09-15T23:57:30.007Z,12.81
2022-09-15T23:59:57.493Z,12.89
